sensor_id;sensor_type;location;lat;lon;timestamp;P1;durP1;ratioP1;P2;durP2;ratioP2
65289;SDS011;51893;59.754;10.110;2022-10-16T00:01:48;0.20;;;0.20;;
65289;SDS011;51893;59.754;10.110;2022-10-16T00:04:16;0.30;;;0.30;;
65289;SDS011;51893;59.754;10.110;2022-10-16T00:06:44;0.90;;;0.40;;
65289;SDS011;51893;59.754;10.110;2022-10-16T00:09:13;0.20;;;0.20;;
65289;SDS011;51893;59.754;10.110;2022-10-16T00:11:41;0.20;;;0.20;;
65289;SDS011;51893;59.754;10.110;2022-10-16T00:14:13;0.90;;;0.20;;
65289;SDS011;51893;59.754;10.110;2022-10-16T00:16:43;0.20;;;0.20;;
65289;SDS011;51893;59.754;10.110;2022-10-16T00:19:12;0.20;;;0.20;;
65289;SDS011;51893;59.754;10.110;2022-10-16T00:21:40;0.20;;;0.20;;
65289;SDS011;51893;59.754;10.110;2022-10-16T00:24:10;0.20;;;0.20;;
65289;SDS011;51893;59.754;10.110;2022-10-16T00:26:40;0.30;;;0.30;;
65289;SDS011;51893;59.754;10.110;2022-10-16T00:29:08;0.90;;;0.20;;
65289;SDS011;51893;59.754;10.110;2022-10-16T00:31:39;0.30;;;0.30;;
65289;SDS011;51893;59.754;10.110;2022-10-16T00:34:07;0.40;;;0.30;;
65289;SDS011;51893;59.754;10.110;2022-10-16T00:36:35;0.40;;;0.40;;
65289;SDS011;51893;59.754;10.110;2022-10-16T00:39:07;0.30;;;0.30;;
65289;SDS011;51893;59.754;10.110;2022-10-16T00:41:36;0.70;;;0.40;;
65289;SDS011;51893;59.754;10.110;2022-10-16T00:47:36;0.80;;;0.40;;
65289;SDS011;51893;59.754;10.110;2022-10-16T00:50:16;0.30;;;0.30;;
65289;SDS011;51893;59.754;10.110;2022-10-16T00:52:51;0.20;;;0.20;;
65289;SDS011;51893;59.754;10.110;2022-10-16T00:55:21;0.40;;;0.40;;
65289;SDS011;51893;59.754;10.110;2022-10-16T00:57:50;0.30;;;0.30;;
65289;SDS011;51893;59.754;10.110;2022-10-16T01:00:22;0.30;;;0.30;;
65289;SDS011;51893;59.754;10.110;2022-10-16T01:02:57;1.10;;;0.40;;
65289;SDS011;51893;59.754;10.110;2022-10-16T01:05:35;0.30;;;0.30;;
65289;SDS011;51893;59.754;10.110;2022-10-16T01:08:22;0.90;;;0.40;;
65289;SDS011;51893;59.754;10.110;2022-10-16T01:11:24;0.60;;;0.30;;
65289;SDS011;51893;59.754;10.110;2022-10-16T01:14:11;0.20;;;0.20;;
65289;SDS011;51893;59.754;10.110;2022-10-16T01:17:26;0.30;;;0.30;;
65289;SDS011;51893;59.754;10.110;2022-10-16T01:20:13;0.30;;;0.30;;
65289;SDS011;51893;59.754;10.110;2022-10-16T01:23:04;0.30;;;0.30;;
65289;SDS011;51893;59.754;10.110;2022-10-16T01:28:45;0.30;;;0.30;;
65289;SDS011;51893;59.754;10.110;2022-10-16T01:31:26;0.40;;;0.40;;
65289;SDS011;51893;59.754;10.110;2022-10-16T01:34:03;0.30;;;0.30;;
65289;SDS011;51893;59.754;10.110;2022-10-16T01:36:46;0.20;;;0.20;;
65289;SDS011;51893;59.754;10.110;2022-10-16T01:39:42;0.40;;;0.40;;
65289;SDS011;51893;59.754;10.110;2022-10-16T01:42:19;0.30;;;0.30;;
65289;SDS011;51893;59.754;10.110;2022-10-16T01:44:52;0.30;;;0.30;;
65289;SDS011;51893;59.754;10.110;2022-10-16T01:47:25;0.20;;;0.20;;
65289;SDS011;51893;59.754;10.110;2022-10-16T01:49:55;0.30;;;0.30;;
65289;SDS011;51893;59.754;10.110;2022-10-16T01:52:35;2.30;;;0.50;;
65289;SDS011;51893;59.754;10.110;2022-10-16T01:55:09;1.60;;;0.40;;
65289;SDS011;51893;59.754;10.110;2022-10-16T01:57:45;0.30;;;0.30;;
65289;SDS011;51893;59.754;10.110;2022-10-16T02:00:16;0.40;;;0.40;;
65289;SDS011;51893;59.754;10.110;2022-10-16T02:02:48;0.40;;;0.30;;
65289;SDS011;51893;59.754;10.110;2022-10-16T02:05:32;1.20;;;0.40;;
65289;SDS011;51893;59.754;10.110;2022-10-16T02:08:05;0.30;;;0.30;;
65289;SDS011;51893;59.754;10.110;2022-10-16T02:10:35;0.60;;;0.40;;
65289;SDS011;51893;59.754;10.110;2022-10-16T02:13:10;0.40;;;0.40;;
65289;SDS011;51893;59.754;10.110;2022-10-16T02:15:44;0.50;;;0.40;;
65289;SDS011;51893;59.754;10.110;2022-10-16T02:18:13;1.00;;;0.40;;
65289;SDS011;51893;59.754;10.110;2022-10-16T02:21:07;0.40;;;0.40;;
65289;SDS011;51893;59.754;10.110;2022-10-16T02:27:22;0.40;;;0.40;;
65289;SDS011;51893;59.754;10.110;2022-10-16T02:29:55;0.20;;;0.20;;
65289;SDS011;51893;59.754;10.110;2022-10-16T02:32:31;0.20;;;0.20;;
65289;SDS011;51893;59.754;10.110;2022-10-16T02:35:00;0.30;;;0.30;;
65289;SDS011;51893;59.754;10.110;2022-10-16T02:37:30;2.00;;;0.40;;
65289;SDS011;51893;59.754;10.110;2022-10-16T02:40:00;1.90;;;0.30;;
65289;SDS011;51893;59.754;10.110;2022-10-16T02:42:38;0.90;;;0.20;;
65289;SDS011;51893;59.754;10.110;2022-10-16T02:45:08;1.70;;;0.50;;
65289;SDS011;51893;59.754;10.110;2022-10-16T02:47:40;0.30;;;0.30;;
65289;SDS011;51893;59.754;10.110;2022-10-16T02:50:08;0.30;;;0.30;;
65289;SDS011;51893;59.754;10.110;2022-10-16T02:52:39;0.50;;;0.40;;
65289;SDS011;51893;59.754;10.110;2022-10-16T02:55:09;0.40;;;0.40;;
65289;SDS011;51893;59.754;10.110;2022-10-16T02:57:38;0.70;;;0.70;;
65289;SDS011;51893;59.754;10.110;2022-10-16T03:00:11;0.50;;;0.50;;
65289;SDS011;51893;59.754;10.110;2022-10-16T03:02:41;0.50;;;0.50;;
65289;SDS011;51893;59.754;10.110;2022-10-16T03:05:11;1.00;;;0.60;;
65289;SDS011;51893;59.754;10.110;2022-10-16T03:07:39;0.40;;;0.40;;
65289;SDS011;51893;59.754;10.110;2022-10-16T03:10:09;2.30;;;0.60;;
65289;SDS011;51893;59.754;10.110;2022-10-16T03:12:39;3.60;;;0.80;;
65289;SDS011;51893;59.754;10.110;2022-10-16T03:15:08;0.60;;;0.60;;
65289;SDS011;51893;59.754;10.110;2022-10-16T03:17:39;0.70;;;0.70;;
65289;SDS011;51893;59.754;10.110;2022-10-16T03:20:10;2.60;;;0.60;;
65289;SDS011;51893;59.754;10.110;2022-10-16T03:22:38;0.70;;;0.70;;
65289;SDS011;51893;59.754;10.110;2022-10-16T03:25:08;0.90;;;0.80;;
65289;SDS011;51893;59.754;10.110;2022-10-16T03:27:36;0.50;;;0.50;;
65289;SDS011;51893;59.754;10.110;2022-10-16T03:30:06;1.80;;;1.00;;
65289;SDS011;51893;59.754;10.110;2022-10-16T03:32:35;1.10;;;0.90;;
65289;SDS011;51893;59.754;10.110;2022-10-16T03:35:03;0.80;;;0.80;;
65289;SDS011;51893;59.754;10.110;2022-10-16T03:37:34;3.00;;;1.20;;
65289;SDS011;51893;59.754;10.110;2022-10-16T03:40:02;1.10;;;1.00;;
65289;SDS011;51893;59.754;10.110;2022-10-16T03:42:31;0.70;;;0.70;;
65289;SDS011;51893;59.754;10.110;2022-10-16T03:45:06;0.80;;;0.80;;
65289;SDS011;51893;59.754;10.110;2022-10-16T03:47:34;1.00;;;0.90;;
65289;SDS011;51893;59.754;10.110;2022-10-16T03:50:03;1.20;;;1.00;;
65289;SDS011;51893;59.754;10.110;2022-10-16T03:52:35;0.90;;;0.90;;
65289;SDS011;51893;59.754;10.110;2022-10-16T03:55:06;0.80;;;0.80;;
65289;SDS011;51893;59.754;10.110;2022-10-16T03:57:35;5.90;;;0.80;;
65289;SDS011;51893;59.754;10.110;2022-10-16T04:00:04;2.90;;;0.80;;
65289;SDS011;51893;59.754;10.110;2022-10-16T04:02:34;0.90;;;0.90;;
65289;SDS011;51893;59.754;10.110;2022-10-16T04:05:03;2.90;;;1.00;;
65289;SDS011;51893;59.754;10.110;2022-10-16T04:07:32;0.90;;;0.80;;
65289;SDS011;51893;59.754;10.110;2022-10-16T04:10:03;2.40;;;1.00;;
65289;SDS011;51893;59.754;10.110;2022-10-16T04:12:32;0.90;;;0.90;;
65289;SDS011;51893;59.754;10.110;2022-10-16T04:15:00;0.80;;;0.80;;
65289;SDS011;51893;59.754;10.110;2022-10-16T04:17:32;3.40;;;1.00;;
65289;SDS011;51893;59.754;10.110;2022-10-16T04:20:01;0.60;;;0.60;;
65289;SDS011;51893;59.754;10.110;2022-10-16T04:22:32;0.80;;;0.80;;
65289;SDS011;51893;59.754;10.110;2022-10-16T04:25:00;0.70;;;0.70;;
65289;SDS011;51893;59.754;10.110;2022-10-16T04:27:32;0.70;;;0.70;;
65289;SDS011;51893;59.754;10.110;2022-10-16T04:30:00;0.50;;;0.50;;
65289;SDS011;51893;59.754;10.110;2022-10-16T04:32:28;1.10;;;0.70;;
65289;SDS011;51893;59.754;10.110;2022-10-16T04:34:55;0.70;;;0.70;;
65289;SDS011;51893;59.754;10.110;2022-10-16T04:37:27;0.60;;;0.60;;
65289;SDS011;51893;59.754;10.110;2022-10-16T04:39:55;0.70;;;0.70;;
65289;SDS011;51893;59.754;10.110;2022-10-16T04:42:24;0.60;;;0.60;;
65289;SDS011;51893;59.754;10.110;2022-10-16T04:44:53;0.80;;;0.60;;
65289;SDS011;51893;59.754;10.110;2022-10-16T04:47:20;0.60;;;0.60;;
65289;SDS011;51893;59.754;10.110;2022-10-16T04:49:50;1.10;;;0.60;;
65289;SDS011;51893;59.754;10.110;2022-10-16T04:52:18;0.60;;;0.60;;
65289;SDS011;51893;59.754;10.110;2022-10-16T04:54:47;0.60;;;0.60;;
65289;SDS011;51893;59.754;10.110;2022-10-16T04:57:15;3.00;;;0.90;;
65289;SDS011;51893;59.754;10.110;2022-10-16T04:59:44;0.70;;;0.70;;
65289;SDS011;51893;59.754;10.110;2022-10-16T05:02:12;0.50;;;0.50;;
65289;SDS011;51893;59.754;10.110;2022-10-16T05:04:39;0.60;;;0.60;;
65289;SDS011;51893;59.754;10.110;2022-10-16T05:07:08;0.50;;;0.50;;
65289;SDS011;51893;59.754;10.110;2022-10-16T05:09:36;1.60;;;0.60;;
65289;SDS011;51893;59.754;10.110;2022-10-16T05:12:05;0.50;;;0.50;;
65289;SDS011;51893;59.754;10.110;2022-10-16T05:14:33;0.60;;;0.60;;
65289;SDS011;51893;59.754;10.110;2022-10-16T05:17:00;1.00;;;0.50;;
65289;SDS011;51893;59.754;10.110;2022-10-16T05:19:28;0.70;;;0.70;;
65289;SDS011;51893;59.754;10.110;2022-10-16T05:21:56;1.10;;;0.70;;
65289;SDS011;51893;59.754;10.110;2022-10-16T05:24:24;0.70;;;0.70;;
65289;SDS011;51893;59.754;10.110;2022-10-16T05:26:53;0.80;;;0.80;;
65289;SDS011;51893;59.754;10.110;2022-10-16T05:29:21;0.50;;;0.50;;
65289;SDS011;51893;59.754;10.110;2022-10-16T05:31:52;0.60;;;0.60;;
65289;SDS011;51893;59.754;10.110;2022-10-16T05:34:21;0.60;;;0.60;;
65289;SDS011;51893;59.754;10.110;2022-10-16T05:36:50;0.90;;;0.90;;
65289;SDS011;51893;59.754;10.110;2022-10-16T05:39:20;0.70;;;0.70;;
65289;SDS011;51893;59.754;10.110;2022-10-16T05:41:49;0.60;;;0.60;;
65289;SDS011;51893;59.754;10.110;2022-10-16T05:44:18;0.50;;;0.50;;
65289;SDS011;51893;59.754;10.110;2022-10-16T05:46:49;0.40;;;0.40;;
65289;SDS011;51893;59.754;10.110;2022-10-16T05:49:17;0.50;;;0.50;;
65289;SDS011;51893;59.754;10.110;2022-10-16T05:51:46;0.70;;;0.70;;
65289;SDS011;51893;59.754;10.110;2022-10-16T05:54:14;1.40;;;0.70;;
65289;SDS011;51893;59.754;10.110;2022-10-16T05:56:42;0.70;;;0.70;;
65289;SDS011;51893;59.754;10.110;2022-10-16T05:59:13;0.60;;;0.60;;
65289;SDS011;51893;59.754;10.110;2022-10-16T06:01:40;0.70;;;0.70;;
65289;SDS011;51893;59.754;10.110;2022-10-16T06:04:10;0.50;;;0.50;;
65289;SDS011;51893;59.754;10.110;2022-10-16T06:06:42;0.60;;;0.60;;
65289;SDS011;51893;59.754;10.110;2022-10-16T06:09:10;1.20;;;1.00;;
65289;SDS011;51893;59.754;10.110;2022-10-16T06:11:37;1.10;;;1.10;;
65289;SDS011;51893;59.754;10.110;2022-10-16T06:14:08;1.40;;;1.00;;
65289;SDS011;51893;59.754;10.110;2022-10-16T06:16:37;0.70;;;0.70;;
65289;SDS011;51893;59.754;10.110;2022-10-16T06:19:07;1.30;;;1.10;;
65289;SDS011;51893;59.754;10.110;2022-10-16T06:21:37;1.10;;;1.10;;
65289;SDS011;51893;59.754;10.110;2022-10-16T06:24:05;0.70;;;0.70;;
65289;SDS011;51893;59.754;10.110;2022-10-16T06:26:33;1.10;;;1.00;;
65289;SDS011;51893;59.754;10.110;2022-10-16T06:29:05;0.80;;;0.80;;
65289;SDS011;51893;59.754;10.110;2022-10-16T06:31:33;1.40;;;1.30;;
65289;SDS011;51893;59.754;10.110;2022-10-16T06:34:02;1.50;;;1.30;;
65289;SDS011;51893;59.754;10.110;2022-10-16T06:36:34;1.70;;;1.60;;
65289;SDS011;51893;59.754;10.110;2022-10-16T06:39:02;1.70;;;1.60;;
65289;SDS011;51893;59.754;10.110;2022-10-16T06:41:33;2.10;;;1.50;;
65289;SDS011;51893;59.754;10.110;2022-10-16T06:44:08;1.60;;;1.50;;
65289;SDS011;51893;59.754;10.110;2022-10-16T06:46:36;1.70;;;1.60;;
65289;SDS011;51893;59.754;10.110;2022-10-16T06:49:06;1.80;;;1.70;;
65289;SDS011;51893;59.754;10.110;2022-10-16T06:51:35;1.90;;;1.80;;
65289;SDS011;51893;59.754;10.110;2022-10-16T06:54:10;2.50;;;2.20;;
65289;SDS011;51893;59.754;10.110;2022-10-16T06:56:37;2.60;;;2.30;;
65289;SDS011;51893;59.754;10.110;2022-10-16T06:59:06;1.50;;;1.40;;
65289;SDS011;51893;59.754;10.110;2022-10-16T07:01:36;1.90;;;1.80;;
65289;SDS011;51893;59.754;10.110;2022-10-16T07:04:04;2.60;;;2.40;;
65289;SDS011;51893;59.754;10.110;2022-10-16T07:06:34;1.80;;;1.70;;
65289;SDS011;51893;59.754;10.110;2022-10-16T07:09:06;1.80;;;1.70;;
65289;SDS011;51893;59.754;10.110;2022-10-16T07:11:39;2.30;;;1.80;;
65289;SDS011;51893;59.754;10.110;2022-10-16T07:14:18;2.50;;;2.10;;
65289;SDS011;51893;59.754;10.110;2022-10-16T07:16:48;2.70;;;1.90;;
65289;SDS011;51893;59.754;10.110;2022-10-16T07:19:16;2.60;;;2.40;;
65289;SDS011;51893;59.754;10.110;2022-10-16T07:21:45;3.00;;;2.10;;
65289;SDS011;51893;59.754;10.110;2022-10-16T07:24:15;2.70;;;2.50;;
65289;SDS011;51893;59.754;10.110;2022-10-16T07:26:45;3.10;;;2.50;;
65289;SDS011;51893;59.754;10.110;2022-10-16T07:29:17;2.80;;;2.40;;
65289;SDS011;51893;59.754;10.110;2022-10-16T07:31:48;1.90;;;1.80;;
65289;SDS011;51893;59.754;10.110;2022-10-16T07:34:18;2.80;;;2.50;;
65289;SDS011;51893;59.754;10.110;2022-10-16T07:36:50;1.90;;;1.50;;
65289;SDS011;51893;59.754;10.110;2022-10-16T07:39:21;2.60;;;2.30;;
65289;SDS011;51893;59.754;10.110;2022-10-16T07:41:49;2.70;;;1.70;;
65289;SDS011;51893;59.754;10.110;2022-10-16T07:44:17;5.10;;;3.00;;
65289;SDS011;51893;59.754;10.110;2022-10-16T07:46:46;3.00;;;2.60;;
65289;SDS011;51893;59.754;10.110;2022-10-16T07:49:13;2.50;;;2.20;;
65289;SDS011;51893;59.754;10.110;2022-10-16T07:51:43;2.20;;;2.00;;
65289;SDS011;51893;59.754;10.110;2022-10-16T07:54:10;1.90;;;1.80;;
65289;SDS011;51893;59.754;10.110;2022-10-16T07:56:40;4.00;;;2.70;;
65289;SDS011;51893;59.754;10.110;2022-10-16T07:59:12;3.90;;;3.20;;
65289;SDS011;51893;59.754;10.110;2022-10-16T08:01:41;3.50;;;3.20;;
65289;SDS011;51893;59.754;10.110;2022-10-16T08:04:11;6.70;;;2.90;;
65289;SDS011;51893;59.754;10.110;2022-10-16T08:06:40;3.90;;;2.70;;
65289;SDS011;51893;59.754;10.110;2022-10-16T08:09:09;3.30;;;3.00;;
65289;SDS011;51893;59.754;10.110;2022-10-16T08:11:39;4.00;;;2.60;;
65289;SDS011;51893;59.754;10.110;2022-10-16T08:14:07;4.80;;;3.90;;
65289;SDS011;51893;59.754;10.110;2022-10-16T08:16:35;4.40;;;2.70;;
65289;SDS011;51893;59.754;10.110;2022-10-16T08:19:03;3.10;;;2.30;;
65289;SDS011;51893;59.754;10.110;2022-10-16T08:21:34;4.70;;;3.30;;
65289;SDS011;51893;59.754;10.110;2022-10-16T08:24:02;5.50;;;3.80;;
65289;SDS011;51893;59.754;10.110;2022-10-16T08:26:32;9.40;;;3.10;;
65289;SDS011;51893;59.754;10.110;2022-10-16T08:28:59;3.70;;;3.00;;
65289;SDS011;51893;59.754;10.110;2022-10-16T08:31:29;6.20;;;3.20;;
65289;SDS011;51893;59.754;10.110;2022-10-16T08:33:57;4.60;;;3.20;;
65289;SDS011;51893;59.754;10.110;2022-10-16T08:36:25;3.30;;;3.00;;
65289;SDS011;51893;59.754;10.110;2022-10-16T08:38:54;3.00;;;2.70;;
65289;SDS011;51893;59.754;10.110;2022-10-16T08:41:33;5.70;;;3.20;;
65289;SDS011;51893;59.754;10.110;2022-10-16T08:47:24;2.90;;;2.40;;
65289;SDS011;51893;59.754;10.110;2022-10-16T08:50:09;6.20;;;2.40;;
65289;SDS011;51893;59.754;10.110;2022-10-16T08:52:46;3.60;;;2.80;;
65289;SDS011;51893;59.754;10.110;2022-10-16T08:55:37;6.00;;;2.80;;
65289;SDS011;51893;59.754;10.110;2022-10-16T08:58:28;5.00;;;2.80;;
65289;SDS011;51893;59.754;10.110;2022-10-16T09:01:02;3.60;;;2.80;;
65289;SDS011;51893;59.754;10.110;2022-10-16T09:07:00;3.20;;;2.90;;
65289;SDS011;51893;59.754;10.110;2022-10-16T09:21:25;7.70;;;3.20;;
65289;SDS011;51893;59.754;10.110;2022-10-16T09:24:10;3.70;;;2.40;;
65289;SDS011;51893;59.754;10.110;2022-10-16T09:26:42;4.60;;;1.90;;
65289;SDS011;51893;59.754;10.110;2022-10-16T09:29:13;2.10;;;1.80;;
65289;SDS011;51893;59.754;10.110;2022-10-16T09:31:43;7.10;;;2.00;;
65289;SDS011;51893;59.754;10.110;2022-10-16T09:34:24;2.50;;;1.70;;
65289;SDS011;51893;59.754;10.110;2022-10-16T09:37:10;1.70;;;1.50;;
65289;SDS011;51893;59.754;10.110;2022-10-16T09:39:46;6.90;;;2.80;;
65289;SDS011;51893;59.754;10.110;2022-10-16T09:42:40;3.80;;;2.20;;
65289;SDS011;51893;59.754;10.110;2022-10-16T09:45:21;2.50;;;1.80;;
65289;SDS011;51893;59.754;10.110;2022-10-16T09:47:51;1.40;;;1.20;;
65289;SDS011;51893;59.754;10.110;2022-10-16T09:50:28;4.70;;;2.20;;
65289;SDS011;51893;59.754;10.110;2022-10-16T09:53:13;5.60;;;2.10;;
65289;SDS011;51893;59.754;10.110;2022-10-16T09:55:50;3.20;;;2.40;;
65289;SDS011;51893;59.754;10.110;2022-10-16T09:58:24;4.30;;;1.70;;
65289;SDS011;51893;59.754;10.110;2022-10-16T10:01:04;2.70;;;2.20;;
65289;SDS011;51893;59.754;10.110;2022-10-16T10:03:42;3.00;;;2.20;;
65289;SDS011;51893;59.754;10.110;2022-10-16T10:06:28;3.70;;;1.90;;
65289;SDS011;51893;59.754;10.110;2022-10-16T10:09:15;3.90;;;1.90;;
65289;SDS011;51893;59.754;10.110;2022-10-16T10:14:37;4.90;;;3.30;;
65289;SDS011;51893;59.754;10.110;2022-10-16T10:17:14;4.70;;;2.40;;
65289;SDS011;51893;59.754;10.110;2022-10-16T10:19:56;3.50;;;1.80;;
65289;SDS011;51893;59.754;10.110;2022-10-16T10:22:46;1.70;;;1.60;;
65289;SDS011;51893;59.754;10.110;2022-10-16T10:25:44;2.30;;;2.10;;
65289;SDS011;51893;59.754;10.110;2022-10-16T10:32:03;3.40;;;2.60;;
65289;SDS011;51893;59.754;10.110;2022-10-16T10:37:55;4.20;;;3.20;;
65289;SDS011;51893;59.754;10.110;2022-10-16T10:40:52;5.70;;;3.20;;
65289;SDS011;51893;59.754;10.110;2022-10-16T10:46:23;4.20;;;3.30;;
65289;SDS011;51893;59.754;10.110;2022-10-16T10:55:19;6.10;;;3.50;;
65289;SDS011;51893;59.754;10.110;2022-10-16T11:01:14;6.80;;;3.40;;
65289;SDS011;51893;59.754;10.110;2022-10-16T11:06:47;4.50;;;3.10;;
65289;SDS011;51893;59.754;10.110;2022-10-16T11:09:24;7.90;;;4.00;;
65289;SDS011;51893;59.754;10.110;2022-10-16T11:12:20;5.70;;;3.70;;
65289;SDS011;51893;59.754;10.110;2022-10-16T11:15:04;6.10;;;4.10;;
65289;SDS011;51893;59.754;10.110;2022-10-16T11:20:49;3.00;;;2.70;;
65289;SDS011;51893;59.754;10.110;2022-10-16T11:23:29;7.30;;;2.80;;
65289;SDS011;51893;59.754;10.110;2022-10-16T11:26:04;16.40;;;7.90;;
65289;SDS011;51893;59.754;10.110;2022-10-16T11:28:47;13.50;;;7.60;;
65289;SDS011;51893;59.754;10.110;2022-10-16T11:31:41;7.30;;;4.70;;
65289;SDS011;51893;59.754;10.110;2022-10-16T11:39:32;5.60;;;3.30;;
65289;SDS011;51893;59.754;10.110;2022-10-16T11:42:29;4.50;;;3.10;;
65289;SDS011;51893;59.754;10.110;2022-10-16T11:45:32;7.40;;;4.70;;
65289;SDS011;51893;59.754;10.110;2022-10-16T11:48:32;7.10;;;4.60;;
65289;SDS011;51893;59.754;10.110;2022-10-16T11:54:26;5.50;;;2.80;;
65289;SDS011;51893;59.754;10.110;2022-10-16T11:57:13;10.20;;;3.90;;
65289;SDS011;51893;59.754;10.110;2022-10-16T12:00:20;5.80;;;2.80;;
65289;SDS011;51893;59.754;10.110;2022-10-16T12:03:17;6.60;;;2.00;;
65289;SDS011;51893;59.754;10.110;2022-10-16T12:09:05;5.10;;;2.80;;
65289;SDS011;51893;59.754;10.110;2022-10-16T12:11:38;5.40;;;3.40;;
65289;SDS011;51893;59.754;10.110;2022-10-16T12:16:56;3.40;;;2.60;;
65289;SDS011;51893;59.754;10.110;2022-10-16T12:19:29;7.20;;;3.10;;
65289;SDS011;51893;59.754;10.110;2022-10-16T12:22:03;6.40;;;3.60;;
65289;SDS011;51893;59.754;10.110;2022-10-16T12:24:51;5.80;;;3.30;;
65289;SDS011;51893;59.754;10.110;2022-10-16T12:27:27;4.20;;;2.40;;
65289;SDS011;51893;59.754;10.110;2022-10-16T12:30:04;11.90;;;5.70;;
65289;SDS011;51893;59.754;10.110;2022-10-16T12:32:37;8.20;;;4.20;;
65289;SDS011;51893;59.754;10.110;2022-10-16T12:35:21;5.50;;;3.00;;
65289;SDS011;51893;59.754;10.110;2022-10-16T12:37:52;4.80;;;2.50;;
65289;SDS011;51893;59.754;10.110;2022-10-16T12:40:30;4.90;;;2.30;;
65289;SDS011;51893;59.754;10.110;2022-10-16T12:43:26;4.10;;;2.00;;
65289;SDS011;51893;59.754;10.110;2022-10-16T12:48:42;5.80;;;2.70;;
65289;SDS011;51893;59.754;10.110;2022-10-16T12:54:30;1.80;;;1.30;;
65289;SDS011;51893;59.754;10.110;2022-10-16T13:10:28;3.00;;;1.70;;
65289;SDS011;51893;59.754;10.110;2022-10-16T13:13:40;2.80;;;2.50;;
65289;SDS011;51893;59.754;10.110;2022-10-16T13:28:59;3.70;;;2.70;;
65289;SDS011;51893;59.754;10.110;2022-10-16T13:31:30;2.50;;;2.00;;
65289;SDS011;51893;59.754;10.110;2022-10-16T13:34:00;3.80;;;2.20;;
65289;SDS011;51893;59.754;10.110;2022-10-16T13:36:50;2.30;;;1.80;;
65289;SDS011;51893;59.754;10.110;2022-10-16T13:39:27;4.90;;;2.60;;
65289;SDS011;51893;59.754;10.110;2022-10-16T13:42:23;2.50;;;1.60;;
65289;SDS011;51893;59.754;10.110;2022-10-16T13:44:57;2.20;;;1.50;;
65289;SDS011;51893;59.754;10.110;2022-10-16T13:47:28;3.40;;;1.80;;
65289;SDS011;51893;59.754;10.110;2022-10-16T13:52:30;2.40;;;2.00;;
65289;SDS011;51893;59.754;10.110;2022-10-16T13:55:11;3.30;;;2.50;;
65289;SDS011;51893;59.754;10.110;2022-10-16T13:57:44;4.40;;;2.70;;
65289;SDS011;51893;59.754;10.110;2022-10-16T14:03:00;4.50;;;2.70;;
65289;SDS011;51893;59.754;10.110;2022-10-16T14:05:36;6.90;;;4.00;;
65289;SDS011;51893;59.754;10.110;2022-10-16T14:08:14;10.20;;;4.60;;
65289;SDS011;51893;59.754;10.110;2022-10-16T14:10:48;5.30;;;3.60;;
65289;SDS011;51893;59.754;10.110;2022-10-16T14:13:38;8.60;;;3.40;;
65289;SDS011;51893;59.754;10.110;2022-10-16T14:16:31;4.90;;;2.20;;
65289;SDS011;51893;59.754;10.110;2022-10-16T14:19:05;7.10;;;4.10;;
65289;SDS011;51893;59.754;10.110;2022-10-16T14:21:42;6.70;;;3.10;;
65289;SDS011;51893;59.754;10.110;2022-10-16T14:24:11;5.50;;;2.50;;
65289;SDS011;51893;59.754;10.110;2022-10-16T14:26:43;4.30;;;3.00;;
65289;SDS011;51893;59.754;10.110;2022-10-16T14:29:19;6.00;;;3.40;;
65289;SDS011;51893;59.754;10.110;2022-10-16T14:32:20;3.20;;;2.80;;
65289;SDS011;51893;59.754;10.110;2022-10-16T14:34:54;4.70;;;3.10;;
65289;SDS011;51893;59.754;10.110;2022-10-16T14:37:28;2.90;;;2.40;;
65289;SDS011;51893;59.754;10.110;2022-10-16T14:39:58;4.90;;;2.80;;
65289;SDS011;51893;59.754;10.110;2022-10-16T14:42:29;5.00;;;2.60;;
65289;SDS011;51893;59.754;10.110;2022-10-16T14:44:59;3.80;;;2.90;;
65289;SDS011;51893;59.754;10.110;2022-10-16T14:47:27;4.70;;;2.90;;
65289;SDS011;51893;59.754;10.110;2022-10-16T14:49:56;6.30;;;3.10;;
65289;SDS011;51893;59.754;10.110;2022-10-16T14:52:29;3.10;;;2.60;;
65289;SDS011;51893;59.754;10.110;2022-10-16T14:54:57;4.90;;;2.80;;
65289;SDS011;51893;59.754;10.110;2022-10-16T14:57:27;2.70;;;2.50;;
65289;SDS011;51893;59.754;10.110;2022-10-16T15:00:22;5.10;;;2.70;;
65289;SDS011;51893;59.754;10.110;2022-10-16T15:02:52;4.70;;;2.70;;
65289;SDS011;51893;59.754;10.110;2022-10-16T15:05:22;4.40;;;3.20;;
65289;SDS011;51893;59.754;10.110;2022-10-16T15:07:54;2.60;;;2.30;;
65289;SDS011;51893;59.754;10.110;2022-10-16T15:10:26;4.60;;;2.70;;
65289;SDS011;51893;59.754;10.110;2022-10-16T15:12:55;3.30;;;2.80;;
65289;SDS011;51893;59.754;10.110;2022-10-16T15:15:36;2.90;;;2.10;;
65289;SDS011;51893;59.754;10.110;2022-10-16T15:18:08;3.40;;;2.30;;
65289;SDS011;51893;59.754;10.110;2022-10-16T15:20:42;3.20;;;2.90;;
65289;SDS011;51893;59.754;10.110;2022-10-16T15:23:22;3.30;;;2.50;;
65289;SDS011;51893;59.754;10.110;2022-10-16T15:25:50;4.40;;;2.90;;
65289;SDS011;51893;59.754;10.110;2022-10-16T15:28:22;3.80;;;2.60;;
65289;SDS011;51893;59.754;10.110;2022-10-16T15:30:56;2.90;;;2.40;;
65289;SDS011;51893;59.754;10.110;2022-10-16T15:33:27;6.50;;;2.30;;
65289;SDS011;51893;59.754;10.110;2022-10-16T15:36:07;6.00;;;2.80;;
65289;SDS011;51893;59.754;10.110;2022-10-16T15:38:37;5.00;;;3.00;;
65289;SDS011;51893;59.754;10.110;2022-10-16T15:41:06;6.00;;;2.80;;
65289;SDS011;51893;59.754;10.110;2022-10-16T15:43:35;3.90;;;2.50;;
65289;SDS011;51893;59.754;10.110;2022-10-16T15:46:05;6.90;;;2.90;;
65289;SDS011;51893;59.754;10.110;2022-10-16T15:48:37;3.40;;;2.60;;
65289;SDS011;51893;59.754;10.110;2022-10-16T15:51:07;3.50;;;2.40;;
65289;SDS011;51893;59.754;10.110;2022-10-16T15:53:35;5.10;;;3.30;;
65289;SDS011;51893;59.754;10.110;2022-10-16T15:56:05;10.50;;;4.90;;
65289;SDS011;51893;59.754;10.110;2022-10-16T15:58:35;17.90;;;7.90;;
65289;SDS011;51893;59.754;10.110;2022-10-16T16:01:04;26.30;;;9.80;;
65289;SDS011;51893;59.754;10.110;2022-10-16T16:03:32;13.50;;;6.80;;
65289;SDS011;51893;59.754;10.110;2022-10-16T16:06:05;10.10;;;4.20;;
65289;SDS011;51893;59.754;10.110;2022-10-16T16:08:36;7.30;;;4.50;;
65289;SDS011;51893;59.754;10.110;2022-10-16T16:11:06;5.10;;;4.00;;
65289;SDS011;51893;59.754;10.110;2022-10-16T16:13:37;5.90;;;4.00;;
65289;SDS011;51893;59.754;10.110;2022-10-16T16:16:11;4.50;;;3.20;;
65289;SDS011;51893;59.754;10.110;2022-10-16T16:18:45;64.40;;;29.60;;
65289;SDS011;51893;59.754;10.110;2022-10-16T16:21:15;20.30;;;10.00;;
65289;SDS011;51893;59.754;10.110;2022-10-16T16:23:43;15.00;;;7.80;;
65289;SDS011;51893;59.754;10.110;2022-10-16T16:26:25;17.90;;;9.10;;
65289;SDS011;51893;59.754;10.110;2022-10-16T16:29:10;11.00;;;5.60;;
65289;SDS011;51893;59.754;10.110;2022-10-16T16:31:41;7.80;;;2.70;;
65289;SDS011;51893;59.754;10.110;2022-10-16T16:34:13;6.50;;;1.80;;
65289;SDS011;51893;59.754;10.110;2022-10-16T16:36:42;10.30;;;6.40;;
65289;SDS011;51893;59.754;10.110;2022-10-16T16:39:12;13.60;;;8.20;;
65289;SDS011;51893;59.754;10.110;2022-10-16T16:41:41;22.10;;;11.40;;
65289;SDS011;51893;59.754;10.110;2022-10-16T16:44:10;15.70;;;8.20;;
65289;SDS011;51893;59.754;10.110;2022-10-16T16:46:39;12.70;;;7.10;;
65289;SDS011;51893;59.754;10.110;2022-10-16T16:49:13;15.10;;;7.00;;
65289;SDS011;51893;59.754;10.110;2022-10-16T16:51:43;22.70;;;10.70;;
65289;SDS011;51893;59.754;10.110;2022-10-16T16:54:12;16.10;;;7.30;;
65289;SDS011;51893;59.754;10.110;2022-10-16T16:56:42;11.80;;;7.60;;
65289;SDS011;51893;59.754;10.110;2022-10-16T16:59:18;16.10;;;8.30;;
65289;SDS011;51893;59.754;10.110;2022-10-16T17:01:49;11.20;;;7.30;;